sensor_id;sensor_type;location;lat;lon;timestamp;temperature;humidity
61253;DHT22;47127;47.516;8.596;2023-04-25T00:00:21;10.40;99.90
61253;DHT22;47127;47.516;8.596;2023-04-25T00:02:47;10.40;99.90
61253;DHT22;47127;47.516;8.596;2023-04-25T00:05:13;10.40;99.90
61253;DHT22;47127;47.516;8.596;2023-04-25T00:07:40;10.40;99.90
61253;DHT22;47127;47.516;8.596;2023-04-25T00:10:08;10.40;99.90
61253;DHT22;47127;47.516;8.596;2023-04-25T00:12:34;10.30;99.90
61253;DHT22;47127;47.516;8.596;2023-04-25T00:15:01;10.30;99.90
61253;DHT22;47127;47.516;8.596;2023-04-25T00:17:27;10.20;99.90
61253;DHT22;47127;47.516;8.596;2023-04-25T00:19:53;10.20;99.90
61253;DHT22;47127;47.516;8.596;2023-04-25T00:22:19;10.20;99.90
61253;DHT22;47127;47.516;8.596;2023-04-25T00:24:44;10.30;99.90
61253;DHT22;47127;47.516;8.596;2023-04-25T00:27:10;10.30;99.90
61253;DHT22;47127;47.516;8.596;2023-04-25T00:29:35;10.30;99.90
61253;DHT22;47127;47.516;8.596;2023-04-25T00:32:01;10.10;99.90
61253;DHT22;47127;47.516;8.596;2023-04-25T00:34:27;10.00;99.90
61253;DHT22;47127;47.516;8.596;2023-04-25T00:36:52;9.90;99.90
61253;DHT22;47127;47.516;8.596;2023-04-25T00:39:18;9.80;99.90
61253;DHT22;47127;47.516;8.596;2023-04-25T00:41:45;9.80;99.90
61253;DHT22;47127;47.516;8.596;2023-04-25T00:44:11;9.80;99.90
61253;DHT22;47127;47.516;8.596;2023-04-25T00:46:38;9.80;99.90
61253;DHT22;47127;47.516;8.596;2023-04-25T00:49:04;9.80;99.90
61253;DHT22;47127;47.516;8.596;2023-04-25T00:51:30;9.80;99.90
61253;DHT22;47127;47.516;8.596;2023-04-25T00:53:58;9.80;99.90
61253;DHT22;47127;47.516;8.596;2023-04-25T00:56:23;9.70;99.90
61253;DHT22;47127;47.516;8.596;2023-04-25T00:58:50;9.80;99.90
61253;DHT22;47127;47.516;8.596;2023-04-25T01:01:17;9.80;99.90
61253;DHT22;47127;47.516;8.596;2023-04-25T01:03:45;9.80;99.90
61253;DHT22;47127;47.516;8.596;2023-04-25T01:06:12;9.90;99.90
61253;DHT22;47127;47.516;8.596;2023-04-25T01:08:38;9.90;99.90
61253;DHT22;47127;47.516;8.596;2023-04-25T01:11:05;9.70;99.90
61253;DHT22;47127;47.516;8.596;2023-04-25T01:13:31;9.70;99.90
61253;DHT22;47127;47.516;8.596;2023-04-25T01:15:58;9.60;99.90
61253;DHT22;47127;47.516;8.596;2023-04-25T01:18:24;9.60;99.90
61253;DHT22;47127;47.516;8.596;2023-04-25T01:20:54;9.50;99.90
61253;DHT22;47127;47.516;8.596;2023-04-25T01:23:20;9.50;99.90
61253;DHT22;47127;47.516;8.596;2023-04-25T01:25:47;9.50;99.90
61253;DHT22;47127;47.516;8.596;2023-04-25T01:28:13;9.60;99.90
61253;DHT22;47127;47.516;8.596;2023-04-25T01:30:39;9.70;99.90
61253;DHT22;47127;47.516;8.596;2023-04-25T01:33:05;9.60;99.90
61253;DHT22;47127;47.516;8.596;2023-04-25T01:35:31;9.70;99.90
61253;DHT22;47127;47.516;8.596;2023-04-25T01:37:57;9.70;99.90
61253;DHT22;47127;47.516;8.596;2023-04-25T01:40:24;9.70;99.90
61253;DHT22;47127;47.516;8.596;2023-04-25T01:42:50;9.70;99.90
61253;DHT22;47127;47.516;8.596;2023-04-25T01:45:17;9.60;99.90
61253;DHT22;47127;47.516;8.596;2023-04-25T01:47:43;9.60;99.90
61253;DHT22;47127;47.516;8.596;2023-04-25T01:50:12;9.60;99.90
61253;DHT22;47127;47.516;8.596;2023-04-25T01:52:37;9.60;99.90
61253;DHT22;47127;47.516;8.596;2023-04-25T01:55:04;9.60;99.90
61253;DHT22;47127;47.516;8.596;2023-04-25T01:57:29;9.50;99.90
61253;DHT22;47127;47.516;8.596;2023-04-25T01:59:59;9.50;99.90
61253;DHT22;47127;47.516;8.596;2023-04-25T02:02:25;9.60;99.90
61253;DHT22;47127;47.516;8.596;2023-04-25T02:04:51;9.60;99.90
61253;DHT22;47127;47.516;8.596;2023-04-25T02:07:17;9.60;99.90
61253;DHT22;47127;47.516;8.596;2023-04-25T02:09:42;9.70;99.90
61253;DHT22;47127;47.516;8.596;2023-04-25T02:12:09;9.70;99.90
61253;DHT22;47127;47.516;8.596;2023-04-25T02:14:35;9.70;99.90
61253;DHT22;47127;47.516;8.596;2023-04-25T02:17:00;9.60;99.90
61253;DHT22;47127;47.516;8.596;2023-04-25T02:19:26;9.50;99.90
61253;DHT22;47127;47.516;8.596;2023-04-25T02:21:51;9.40;99.90
61253;DHT22;47127;47.516;8.596;2023-04-25T02:24:17;9.40;99.90
61253;DHT22;47127;47.516;8.596;2023-04-25T02:26:42;9.30;99.90
61253;DHT22;47127;47.516;8.596;2023-04-25T02:29:09;9.30;99.90
61253;DHT22;47127;47.516;8.596;2023-04-25T02:31:35;9.20;99.90
61253;DHT22;47127;47.516;8.596;2023-04-25T02:34:00;9.20;99.90
61253;DHT22;47127;47.516;8.596;2023-04-25T02:36:26;9.30;99.90
61253;DHT22;47127;47.516;8.596;2023-04-25T02:38:52;9.20;99.90
61253;DHT22;47127;47.516;8.596;2023-04-25T02:41:17;9.30;99.90
61253;DHT22;47127;47.516;8.596;2023-04-25T02:43:43;9.20;99.90
61253;DHT22;47127;47.516;8.596;2023-04-25T02:46:08;9.20;99.90
61253;DHT22;47127;47.516;8.596;2023-04-25T02:48:35;9.20;99.90
61253;DHT22;47127;47.516;8.596;2023-04-25T02:51:00;9.10;99.90
61253;DHT22;47127;47.516;8.596;2023-04-25T02:53:26;8.90;99.90
61253;DHT22;47127;47.516;8.596;2023-04-25T02:55:51;8.80;99.90
61253;DHT22;47127;47.516;8.596;2023-04-25T02:58:18;8.70;99.90
61253;DHT22;47127;47.516;8.596;2023-04-25T03:00:43;8.60;99.90
61253;DHT22;47127;47.516;8.596;2023-04-25T03:03:09;8.50;99.90
61253;DHT22;47127;47.516;8.596;2023-04-25T03:05:35;8.30;99.90
61253;DHT22;47127;47.516;8.596;2023-04-25T03:08:00;8.20;99.90
61253;DHT22;47127;47.516;8.596;2023-04-25T03:10:26;8.10;99.90
61253;DHT22;47127;47.516;8.596;2023-04-25T03:12:51;8.10;99.90
61253;DHT22;47127;47.516;8.596;2023-04-25T03:15:17;8.00;99.90
61253;DHT22;47127;47.516;8.596;2023-04-25T03:17:43;7.90;99.90
61253;DHT22;47127;47.516;8.596;2023-04-25T03:20:09;7.90;99.90
61253;DHT22;47127;47.516;8.596;2023-04-25T03:22:34;7.90;99.90
61253;DHT22;47127;47.516;8.596;2023-04-25T03:25:00;7.90;99.90
61253;DHT22;47127;47.516;8.596;2023-04-25T03:27:25;7.90;99.90
61253;DHT22;47127;47.516;8.596;2023-04-25T03:29:51;7.90;99.90
61253;DHT22;47127;47.516;8.596;2023-04-25T03:32:16;7.90;99.90
61253;DHT22;47127;47.516;8.596;2023-04-25T03:34:42;7.90;99.90
61253;DHT22;47127;47.516;8.596;2023-04-25T03:37:08;8.00;99.90
61253;DHT22;47127;47.516;8.596;2023-04-25T03:39:33;7.90;99.90
61253;DHT22;47127;47.516;8.596;2023-04-25T03:41:59;7.80;99.90
61253;DHT22;47127;47.516;8.596;2023-04-25T03:44:24;7.70;99.90
61253;DHT22;47127;47.516;8.596;2023-04-25T03:46:50;7.60;99.90
61253;DHT22;47127;47.516;8.596;2023-04-25T03:49:16;7.50;99.90
61253;DHT22;47127;47.516;8.596;2023-04-25T03:51:41;7.60;99.90
61253;DHT22;47127;47.516;8.596;2023-04-25T03:54:07;7.60;99.90
61253;DHT22;47127;47.516;8.596;2023-04-25T03:56:33;7.60;99.90
61253;DHT22;47127;47.516;8.596;2023-04-25T03:58:58;7.50;99.90
61253;DHT22;47127;47.516;8.596;2023-04-25T04:01:24;7.50;99.90
61253;DHT22;47127;47.516;8.596;2023-04-25T04:03:50;7.40;99.90
61253;DHT22;47127;47.516;8.596;2023-04-25T04:06:16;7.40;99.90
61253;DHT22;47127;47.516;8.596;2023-04-25T04:08:42;7.40;99.90
61253;DHT22;47127;47.516;8.596;2023-04-25T04:11:07;7.30;99.90
61253;DHT22;47127;47.516;8.596;2023-04-25T04:13:33;7.30;99.90
61253;DHT22;47127;47.516;8.596;2023-04-25T04:15:59;7.20;99.90
61253;DHT22;47127;47.516;8.596;2023-04-25T04:18:24;7.10;99.90
61253;DHT22;47127;47.516;8.596;2023-04-25T04:20:50;7.00;99.90
61253;DHT22;47127;47.516;8.596;2023-04-25T04:23:16;7.10;99.90
61253;DHT22;47127;47.516;8.596;2023-04-25T04:25:41;7.20;99.90
61253;DHT22;47127;47.516;8.596;2023-04-25T04:28:07;7.20;99.90
61253;DHT22;47127;47.516;8.596;2023-04-25T04:30:33;7.30;99.90
61253;DHT22;47127;47.516;8.596;2023-04-25T04:33:01;7.30;99.90
61253;DHT22;47127;47.516;8.596;2023-04-25T04:35:27;7.10;99.90
61253;DHT22;47127;47.516;8.596;2023-04-25T04:37:53;7.10;99.90
61253;DHT22;47127;47.516;8.596;2023-04-25T04:40:19;7.10;99.90
61253;DHT22;47127;47.516;8.596;2023-04-25T04:42:44;7.20;99.90
61253;DHT22;47127;47.516;8.596;2023-04-25T04:45:14;7.30;99.90
61253;DHT22;47127;47.516;8.596;2023-04-25T04:47:40;7.30;99.90
61253;DHT22;47127;47.516;8.596;2023-04-25T04:50:09;7.00;99.90
61253;DHT22;47127;47.516;8.596;2023-04-25T04:52:36;7.40;99.90
61253;DHT22;47127;47.516;8.596;2023-04-25T04:55:03;7.40;99.90
61253;DHT22;47127;47.516;8.596;2023-04-25T04:57:29;7.50;99.90
61253;DHT22;47127;47.516;8.596;2023-04-25T04:59:56;7.50;99.90
61253;DHT22;47127;47.516;8.596;2023-04-25T05:02:22;7.40;99.90
61253;DHT22;47127;47.516;8.596;2023-04-25T05:04:47;7.40;99.90
61253;DHT22;47127;47.516;8.596;2023-04-25T05:07:13;7.50;99.90
61253;DHT22;47127;47.516;8.596;2023-04-25T05:09:39;7.50;99.90
61253;DHT22;47127;47.516;8.596;2023-04-25T05:12:05;7.40;99.90
61253;DHT22;47127;47.516;8.596;2023-04-25T05:14:31;7.60;99.90
61253;DHT22;47127;47.516;8.596;2023-04-25T05:16:56;7.70;99.90
61253;DHT22;47127;47.516;8.596;2023-04-25T05:19:22;7.60;99.90
61253;DHT22;47127;47.516;8.596;2023-04-25T05:21:48;7.60;99.90
61253;DHT22;47127;47.516;8.596;2023-04-25T05:24:14;7.70;99.90
61253;DHT22;47127;47.516;8.596;2023-04-25T05:26:40;7.80;99.90
61253;DHT22;47127;47.516;8.596;2023-04-25T05:29:06;7.90;99.90
61253;DHT22;47127;47.516;8.596;2023-04-25T05:31:32;8.00;99.90
61253;DHT22;47127;47.516;8.596;2023-04-25T05:33:57;8.00;99.90
61253;DHT22;47127;47.516;8.596;2023-04-25T05:36:23;8.10;99.90
61253;DHT22;47127;47.516;8.596;2023-04-25T05:38:49;8.10;99.90
61253;DHT22;47127;47.516;8.596;2023-04-25T05:41:14;8.30;99.90
61253;DHT22;47127;47.516;8.596;2023-04-25T05:43:40;8.40;99.90
61253;DHT22;47127;47.516;8.596;2023-04-25T05:46:11;8.50;99.90
61253;DHT22;47127;47.516;8.596;2023-04-25T05:48:37;8.60;99.90
61253;DHT22;47127;47.516;8.596;2023-04-25T05:51:02;8.70;99.90
61253;DHT22;47127;47.516;8.596;2023-04-25T05:53:28;8.80;99.90
61253;DHT22;47127;47.516;8.596;2023-04-25T05:55:54;8.80;99.90
61253;DHT22;47127;47.516;8.596;2023-04-25T05:58:19;9.00;99.90
61253;DHT22;47127;47.516;8.596;2023-04-25T06:00:45;9.10;99.90
61253;DHT22;47127;47.516;8.596;2023-04-25T06:03:11;9.20;99.90
61253;DHT22;47127;47.516;8.596;2023-04-25T06:05:41;9.30;99.90
61253;DHT22;47127;47.516;8.596;2023-04-25T06:08:06;9.40;99.90
61253;DHT22;47127;47.516;8.596;2023-04-25T06:10:32;9.50;99.90
61253;DHT22;47127;47.516;8.596;2023-04-25T06:12:57;9.50;99.90
61253;DHT22;47127;47.516;8.596;2023-04-25T06:15:23;9.50;99.90
61253;DHT22;47127;47.516;8.596;2023-04-25T06:17:48;9.50;99.90
61253;DHT22;47127;47.516;8.596;2023-04-25T06:20:14;9.70;99.90
61253;DHT22;47127;47.516;8.596;2023-04-25T06:22:40;9.70;99.90
61253;DHT22;47127;47.516;8.596;2023-04-25T06:25:06;9.80;99.90
61253;DHT22;47127;47.516;8.596;2023-04-25T06:27:33;9.70;99.90
61253;DHT22;47127;47.516;8.596;2023-04-25T06:29:58;9.60;99.90
61253;DHT22;47127;47.516;8.596;2023-04-25T06:32:24;9.40;99.90
61253;DHT22;47127;47.516;8.596;2023-04-25T06:34:50;9.00;99.90
61253;DHT22;47127;47.516;8.596;2023-04-25T06:37:16;9.00;99.90
61253;DHT22;47127;47.516;8.596;2023-04-25T06:39:41;8.70;99.90
61253;DHT22;47127;47.516;8.596;2023-04-25T06:42:07;8.30;99.90
61253;DHT22;47127;47.516;8.596;2023-04-25T06:44:32;8.00;99.90
61253;DHT22;47127;47.516;8.596;2023-04-25T06:46:58;8.10;99.90
61253;DHT22;47127;47.516;8.596;2023-04-25T06:49:23;7.90;99.90
61253;DHT22;47127;47.516;8.596;2023-04-25T06:51:49;7.80;99.90
61253;DHT22;47127;47.516;8.596;2023-04-25T06:54:14;7.80;99.90
61253;DHT22;47127;47.516;8.596;2023-04-25T06:56:40;7.80;99.90
61253;DHT22;47127;47.516;8.596;2023-04-25T06:59:06;7.80;99.90
61253;DHT22;47127;47.516;8.596;2023-04-25T07:01:31;7.80;99.90
61253;DHT22;47127;47.516;8.596;2023-04-25T07:03:57;7.70;99.90
61253;DHT22;47127;47.516;8.596;2023-04-25T07:06:23;7.80;99.90
61253;DHT22;47127;47.516;8.596;2023-04-25T07:08:52;8.00;99.90
61253;DHT22;47127;47.516;8.596;2023-04-25T07:11:18;8.10;99.90
61253;DHT22;47127;47.516;8.596;2023-04-25T07:13:44;8.10;99.90
61253;DHT22;47127;47.516;8.596;2023-04-25T07:16:09;8.30;99.90
61253;DHT22;47127;47.516;8.596;2023-04-25T07:18:35;8.40;99.90
61253;DHT22;47127;47.516;8.596;2023-04-25T07:21:00;8.40;99.90
61253;DHT22;47127;47.516;8.596;2023-04-25T07:23:26;8.60;99.90
61253;DHT22;47127;47.516;8.596;2023-04-25T07:25:52;8.60;99.90
61253;DHT22;47127;47.516;8.596;2023-04-25T07:28:17;8.70;99.90
61253;DHT22;47127;47.516;8.596;2023-04-25T07:30:43;8.70;99.90
61253;DHT22;47127;47.516;8.596;2023-04-25T07:33:09;8.70;99.90
61253;DHT22;47127;47.516;8.596;2023-04-25T07:35:35;8.70;99.90
61253;DHT22;47127;47.516;8.596;2023-04-25T07:38:02;8.70;99.90
61253;DHT22;47127;47.516;8.596;2023-04-25T07:40:27;8.80;99.90
61253;DHT22;47127;47.516;8.596;2023-04-25T07:42:56;8.80;99.90
61253;DHT22;47127;47.516;8.596;2023-04-25T07:45:22;8.80;99.90
61253;DHT22;47127;47.516;8.596;2023-04-25T07:47:47;8.80;99.90
61253;DHT22;47127;47.516;8.596;2023-04-25T07:50:13;8.80;99.90
61253;DHT22;47127;47.516;8.596;2023-04-25T07:52:41;8.80;99.90
61253;DHT22;47127;47.516;8.596;2023-04-25T07:55:07;8.80;99.90
61253;DHT22;47127;47.516;8.596;2023-04-25T07:57:33;8.80;99.90
61253;DHT22;47127;47.516;8.596;2023-04-25T08:00:00;9.00;99.90
61253;DHT22;47127;47.516;8.596;2023-04-25T08:02:25;9.00;99.90
61253;DHT22;47127;47.516;8.596;2023-04-25T08:04:54;9.00;99.90
61253;DHT22;47127;47.516;8.596;2023-04-25T08:07:20;9.00;99.90
61253;DHT22;47127;47.516;8.596;2023-04-25T08:09:46;9.00;99.90
61253;DHT22;47127;47.516;8.596;2023-04-25T08:12:11;9.00;99.90
61253;DHT22;47127;47.516;8.596;2023-04-25T08:14:37;9.00;99.90
61253;DHT22;47127;47.516;8.596;2023-04-25T08:17:04;8.90;99.90
61253;DHT22;47127;47.516;8.596;2023-04-25T08:19:30;9.00;99.90
61253;DHT22;47127;47.516;8.596;2023-04-25T08:21:56;9.10;99.90
61253;DHT22;47127;47.516;8.596;2023-04-25T08:24:22;9.20;99.90
61253;DHT22;47127;47.516;8.596;2023-04-25T08:26:48;9.20;99.90
61253;DHT22;47127;47.516;8.596;2023-04-25T08:29:14;9.20;99.90
61253;DHT22;47127;47.516;8.596;2023-04-25T08:31:40;9.30;99.90
61253;DHT22;47127;47.516;8.596;2023-04-25T08:34:06;9.30;99.90
61253;DHT22;47127;47.516;8.596;2023-04-25T08:36:32;9.10;99.90
61253;DHT22;47127;47.516;8.596;2023-04-25T08:38:58;8.80;99.90
61253;DHT22;47127;47.516;8.596;2023-04-25T08:41:24;8.90;99.90
61253;DHT22;47127;47.516;8.596;2023-04-25T08:43:51;9.00;99.90
61253;DHT22;47127;47.516;8.596;2023-04-25T08:46:20;9.00;99.90
61253;DHT22;47127;47.516;8.596;2023-04-25T08:48:46;9.10;99.90
61253;DHT22;47127;47.516;8.596;2023-04-25T08:51:22;9.20;99.90
61253;DHT22;47127;47.516;8.596;2023-04-25T08:53:51;8.90;99.90
61253;DHT22;47127;47.516;8.596;2023-04-25T08:56:17;8.80;99.90
61253;DHT22;47127;47.516;8.596;2023-04-25T08:58:44;8.80;99.90
61253;DHT22;47127;47.516;8.596;2023-04-25T09:01:12;8.70;99.90
61253;DHT22;47127;47.516;8.596;2023-04-25T09:03:38;8.80;99.90
61253;DHT22;47127;47.516;8.596;2023-04-25T09:06:03;8.80;99.90
61253;DHT22;47127;47.516;8.596;2023-04-25T09:08:29;8.80;99.90
61253;DHT22;47127;47.516;8.596;2023-04-25T09:10:55;8.90;99.90
61253;DHT22;47127;47.516;8.596;2023-04-25T09:13:26;8.80;99.90
61253;DHT22;47127;47.516;8.596;2023-04-25T09:15:54;8.80;99.90
61253;DHT22;47127;47.516;8.596;2023-04-25T09:18:30;8.90;99.90
61253;DHT22;47127;47.516;8.596;2023-04-25T09:21:08;8.90;99.90
61253;DHT22;47127;47.516;8.596;2023-04-25T09:23:45;9.00;99.90
61253;DHT22;47127;47.516;8.596;2023-04-25T09:26:18;9.10;99.90
61253;DHT22;47127;47.516;8.596;2023-04-25T09:28:44;9.20;99.90
61253;DHT22;47127;47.516;8.596;2023-04-25T09:31:11;9.10;99.90
61253;DHT22;47127;47.516;8.596;2023-04-25T09:33:37;9.10;99.90
61253;DHT22;47127;47.516;8.596;2023-04-25T09:36:08;9.20;99.90
61253;DHT22;47127;47.516;8.596;2023-04-25T09:38:44;9.30;99.90
61253;DHT22;47127;47.516;8.596;2023-04-25T09:41:10;9.30;99.90
61253;DHT22;47127;47.516;8.596;2023-04-25T09:43:37;8.60;99.90
61253;DHT22;47127;47.516;8.596;2023-04-25T09:46:04;9.50;99.90
61253;DHT22;47127;47.516;8.596;2023-04-25T09:48:32;9.30;99.90
61253;DHT22;47127;47.516;8.596;2023-04-25T09:51:13;9.40;99.90
61253;DHT22;47127;47.516;8.596;2023-04-25T09:53:44;9.50;99.90
61253;DHT22;47127;47.516;8.596;2023-04-25T09:56:12;9.40;99.90
61253;DHT22;47127;47.516;8.596;2023-04-25T09:58:39;9.30;99.90
61253;DHT22;47127;47.516;8.596;2023-04-25T10:01:07;9.50;99.90
61253;DHT22;47127;47.516;8.596;2023-04-25T10:03:35;9.40;99.90
61253;DHT22;47127;47.516;8.596;2023-04-25T10:06:03;9.30;99.90
61253;DHT22;47127;47.516;8.596;2023-04-25T10:08:36;9.30;99.90
61253;DHT22;47127;47.516;8.596;2023-04-25T10:11:04;9.40;99.90
61253;DHT22;47127;47.516;8.596;2023-04-25T10:13:31;9.50;99.90
61253;DHT22;47127;47.516;8.596;2023-04-25T10:16:02;9.60;99.90
61253;DHT22;47127;47.516;8.596;2023-04-25T10:18:29;9.50;99.90
61253;DHT22;47127;47.516;8.596;2023-04-25T10:20:57;9.40;99.90
61253;DHT22;47127;47.516;8.596;2023-04-25T10:23:23;9.60;99.90
61253;DHT22;47127;47.516;8.596;2023-04-25T10:25:51;9.80;99.90
61253;DHT22;47127;47.516;8.596;2023-04-25T10:28:18;9.70;99.90
61253;DHT22;47127;47.516;8.596;2023-04-25T10:31:11;10.00;99.90
61253;DHT22;47127;47.516;8.596;2023-04-25T10:33:41;10.10;99.90
61253;DHT22;47127;47.516;8.596;2023-04-25T10:36:11;10.40;99.90
61253;DHT22;47127;47.516;8.596;2023-04-25T10:38:37;10.60;99.90
61253;DHT22;47127;47.516;8.596;2023-04-25T10:41:06;11.00;99.90
61253;DHT22;47127;47.516;8.596;2023-04-25T10:43:34;11.10;99.90
61253;DHT22;47127;47.516;8.596;2023-04-25T10:46:00;11.10;99.90
61253;DHT22;47127;47.516;8.596;2023-04-25T10:48:27;10.80;99.90
61253;DHT22;47127;47.516;8.596;2023-04-25T10:51:16;11.00;99.90
61253;DHT22;47127;47.516;8.596;2023-04-25T10:53:44;11.20;99.90
61253;DHT22;47127;47.516;8.596;2023-04-25T10:56:20;11.10;99.90
61253;DHT22;47127;47.516;8.596;2023-04-25T10:58:49;10.90;99.90
61253;DHT22;47127;47.516;8.596;2023-04-25T11:01:20;10.40;99.90
61253;DHT22;47127;47.516;8.596;2023-04-25T11:03:45;10.70;99.90
61253;DHT22;47127;47.516;8.596;2023-04-25T11:06:22;10.70;99.90
61253;DHT22;47127;47.516;8.596;2023-04-25T11:08:49;10.70;99.90
61253;DHT22;47127;47.516;8.596;2023-04-25T11:11:19;10.90;99.90
61253;DHT22;47127;47.516;8.596;2023-04-25T11:13:48;10.70;99.90
61253;DHT22;47127;47.516;8.596;2023-04-25T11:16:14;10.70;99.90
61253;DHT22;47127;47.516;8.596;2023-04-25T11:18:44;10.80;99.90
61253;DHT22;47127;47.516;8.596;2023-04-25T11:21:10;10.90;99.90
61253;DHT22;47127;47.516;8.596;2023-04-25T11:23:36;10.90;99.90
61253;DHT22;47127;47.516;8.596;2023-04-25T11:26:03;11.20;99.90
61253;DHT22;47127;47.516;8.596;2023-04-25T11:28:29;11.40;99.90
61253;DHT22;47127;47.516;8.596;2023-04-25T11:30:55;11.50;99.90
61253;DHT22;47127;47.516;8.596;2023-04-25T11:33:25;11.40;99.90
61253;DHT22;47127;47.516;8.596;2023-04-25T11:35:53;11.60;99.90
61253;DHT22;47127;47.516;8.596;2023-04-25T11:38:20;11.70;99.90
61253;DHT22;47127;47.516;8.596;2023-04-25T11:40:50;11.80;99.90
61253;DHT22;47127;47.516;8.596;2023-04-25T11:43:16;11.50;99.90
61253;DHT22;47127;47.516;8.596;2023-04-25T11:45:46;11.40;99.90
61253;DHT22;47127;47.516;8.596;2023-04-25T11:48:12;11.50;99.90
61253;DHT22;47127;47.516;8.596;2023-04-25T11:50:39;11.50;99.90
61253;DHT22;47127;47.516;8.596;2023-04-25T11:53:05;11.50;99.90
61253;DHT22;47127;47.516;8.596;2023-04-25T11:55:32;11.40;99.90
61253;DHT22;47127;47.516;8.596;2023-04-25T11:57:59;11.20;99.90
61253;DHT22;47127;47.516;8.596;2023-04-25T12:00:26;11.20;99.90
61253;DHT22;47127;47.516;8.596;2023-04-25T12:02:55;11.00;99.90
61253;DHT22;47127;47.516;8.596;2023-04-25T12:05:28;10.70;99.90
61253;DHT22;47127;47.516;8.596;2023-04-25T12:07:54;10.70;99.90
61253;DHT22;47127;47.516;8.596;2023-04-25T12:10:19;10.60;99.90
61253;DHT22;47127;47.516;8.596;2023-04-25T12:12:47;10.50;99.90
61253;DHT22;47127;47.516;8.596;2023-04-25T12:15:26;10.40;99.90
61253;DHT22;47127;47.516;8.596;2023-04-25T12:17:53;10.20;99.90
61253;DHT22;47127;47.516;8.596;2023-04-25T12:20:23;10.10;99.90
61253;DHT22;47127;47.516;8.596;2023-04-25T12:22:50;10.20;99.90
61253;DHT22;47127;47.516;8.596;2023-04-25T12:28:13;10.20;99.90
61253;DHT22;47127;47.516;8.596;2023-04-25T12:30:55;10.30;99.90
61253;DHT22;47127;47.516;8.596;2023-04-25T12:33:23;10.30;99.90
61253;DHT22;47127;47.516;8.596;2023-04-25T12:35:49;10.20;99.90
61253;DHT22;47127;47.516;8.596;2023-04-25T12:38:22;10.60;99.90
61253;DHT22;47127;47.516;8.596;2023-04-25T12:40:47;11.00;99.90
61253;DHT22;47127;47.516;8.596;2023-04-25T12:43:13;10.90;99.90
61253;DHT22;47127;47.516;8.596;2023-04-25T12:45:38;11.00;99.90
61253;DHT22;47127;47.516;8.596;2023-04-25T12:48:04;11.40;99.90
61253;DHT22;47127;47.516;8.596;2023-04-25T12:50:30;11.50;99.90
61253;DHT22;47127;47.516;8.596;2023-04-25T12:52:55;11.50;99.90
61253;DHT22;47127;47.516;8.596;2023-04-25T12:55:21;11.60;99.90
61253;DHT22;47127;47.516;8.596;2023-04-25T12:57:46;11.60;99.90
61253;DHT22;47127;47.516;8.596;2023-04-25T13:00:12;11.60;99.90
61253;DHT22;47127;47.516;8.596;2023-04-25T13:02:40;11.50;99.90
61253;DHT22;47127;47.516;8.596;2023-04-25T13:05:07;11.50;99.90
61253;DHT22;47127;47.516;8.596;2023-04-25T13:07:32;11.40;99.90
61253;DHT22;47127;47.516;8.596;2023-04-25T13:09:58;11.40;99.90
61253;DHT22;47127;47.516;8.596;2023-04-25T13:12:24;11.20;99.90
61253;DHT22;47127;47.516;8.596;2023-04-25T13:14:49;11.20;99.90
61253;DHT22;47127;47.516;8.596;2023-04-25T13:17:16;11.00;99.90
61253;DHT22;47127;47.516;8.596;2023-04-25T13:19:42;10.80;99.90
61253;DHT22;47127;47.516;8.596;2023-04-25T13:22:07;10.70;99.90
61253;DHT22;47127;47.516;8.596;2023-04-25T13:24:33;10.60;99.90
61253;DHT22;47127;47.516;8.596;2023-04-25T13:26:58;10.70;99.90
61253;DHT22;47127;47.516;8.596;2023-04-25T13:29:24;10.50;99.90
61253;DHT22;47127;47.516;8.596;2023-04-25T13:31:50;10.20;99.90
61253;DHT22;47127;47.516;8.596;2023-04-25T13:34:15;10.10;99.90
61253;DHT22;47127;47.516;8.596;2023-04-25T13:36:41;10.20;99.90
61253;DHT22;47127;47.516;8.596;2023-04-25T13:39:06;10.10;99.90
61253;DHT22;47127;47.516;8.596;2023-04-25T13:41:32;10.30;99.90
61253;DHT22;47127;47.516;8.596;2023-04-25T13:43:58;10.60;99.90
61253;DHT22;47127;47.516;8.596;2023-04-25T13:46:23;10.80;99.90
61253;DHT22;47127;47.516;8.596;2023-04-25T13:48:49;11.00;99.90
61253;DHT22;47127;47.516;8.596;2023-04-25T13:51:16;11.00;99.90
61253;DHT22;47127;47.516;8.596;2023-04-25T13:53:43;11.00;99.90
61253;DHT22;47127;47.516;8.596;2023-04-25T13:56:10;11.10;99.90
61253;DHT22;47127;47.516;8.596;2023-04-25T13:58:37;10.90;99.90
61253;DHT22;47127;47.516;8.596;2023-04-25T14:01:02;10.80;99.90
61253;DHT22;47127;47.516;8.596;2023-04-25T14:03:30;10.80;99.90
61253;DHT22;47127;47.516;8.596;2023-04-25T14:05:55;10.80;99.90
61253;DHT22;47127;47.516;8.596;2023-04-25T14:08:21;10.90;99.90
61253;DHT22;47127;47.516;8.596;2023-04-25T14:10:47;10.90;99.90
61253;DHT22;47127;47.516;8.596;2023-04-25T14:13:12;11.00;99.90
61253;DHT22;47127;47.516;8.596;2023-04-25T14:15:38;11.20;99.90
61253;DHT22;47127;47.516;8.596;2023-04-25T14:18:03;11.10;99.90
61253;DHT22;47127;47.516;8.596;2023-04-25T14:20:31;10.90;99.90
61253;DHT22;47127;47.516;8.596;2023-04-25T14:22:56;10.80;99.90
61253;DHT22;47127;47.516;8.596;2023-04-25T14:25:23;10.80;99.90
61253;DHT22;47127;47.516;8.596;2023-04-25T14:27:49;10.80;99.90
61253;DHT22;47127;47.516;8.596;2023-04-25T14:30:20;10.70;99.90
61253;DHT22;47127;47.516;8.596;2023-04-25T14:32:46;10.90;99.90
61253;DHT22;47127;47.516;8.596;2023-04-25T14:35:12;11.00;99.90
61253;DHT22;47127;47.516;8.596;2023-04-25T14:37:37;11.30;99.90
61253;DHT22;47127;47.516;8.596;2023-04-25T14:40:03;11.70;99.90
61253;DHT22;47127;47.516;8.596;2023-04-25T14:42:30;12.10;99.90
61253;DHT22;47127;47.516;8.596;2023-04-25T14:44:56;12.70;99.90
61253;DHT22;47127;47.516;8.596;2023-04-25T14:47:22;12.90;99.90
61253;DHT22;47127;47.516;8.596;2023-04-25T14:49:48;12.80;99.90
61253;DHT22;47127;47.516;8.596;2023-04-25T14:52:19;13.10;99.90
61253;DHT22;47127;47.516;8.596;2023-04-25T14:54:50;13.10;99.90
61253;DHT22;47127;47.516;8.596;2023-04-25T14:57:20;12.60;99.90
61253;DHT22;47127;47.516;8.596;2023-04-25T14:59:46;12.80;99.90
61253;DHT22;47127;47.516;8.596;2023-04-25T15:02:11;13.00;99.90
61253;DHT22;47127;47.516;8.596;2023-04-25T15:04:37;12.90;99.90
61253;DHT22;47127;47.516;8.596;2023-04-25T15:07:02;12.60;99.90
61253;DHT22;47127;47.516;8.596;2023-04-25T15:09:29;12.90;99.90
61253;DHT22;47127;47.516;8.596;2023-04-25T15:11:55;13.00;99.90
61253;DHT22;47127;47.516;8.596;2023-04-25T15:14:20;12.70;99.90
61253;DHT22;47127;47.516;8.596;2023-04-25T15:16:46;12.60;99.90
61253;DHT22;47127;47.516;8.596;2023-04-25T15:19:12;12.40;99.90
61253;DHT22;47127;47.516;8.596;2023-04-25T15:21:37;12.20;99.90
61253;DHT22;47127;47.516;8.596;2023-04-25T15:24:03;12.00;99.90
61253;DHT22;47127;47.516;8.596;2023-04-25T15:26:29;11.70;99.90
61253;DHT22;47127;47.516;8.596;2023-04-25T15:28:54;11.70;99.90
61253;DHT22;47127;47.516;8.596;2023-04-25T15:31:20;11.80;99.90
61253;DHT22;47127;47.516;8.596;2023-04-25T15:33:46;11.40;99.90
61253;DHT22;47127;47.516;8.596;2023-04-25T15:36:12;10.70;99.90
61253;DHT22;47127;47.516;8.596;2023-04-25T15:38:37;10.20;99.90